createdAt,value
2019-01-19T00:02:54.056Z,15.00
2019-01-19T00:06:15.078Z,12.90
2019-01-19T00:09:09.447Z,16.55
2019-01-19T00:12:37.465Z,13.67
2019-01-19T00:15:13.351Z,11.18
2019-01-19T00:17:58.235Z,13.60
2019-01-19T00:21:23.588Z,12.95
2019-01-19T00:24:43.713Z,11.70
2019-01-19T00:27:49.035Z,12.65
2019-01-19T00:30:55.810Z,12.75
2019-01-19T00:34:07.182Z,13.60
2019-01-19T00:36:56.675Z,21.05
2019-01-19T00:39:48.641Z,13.40
2019-01-19T00:42:45.150Z,11.97
2019-01-19T00:46:07.515Z,13.35
2019-01-19T00:49:32.812Z,12.33
2019-01-19T00:52:37.812Z,13.05
2019-01-19T00:55:53.351Z,13.50
2019-01-19T00:58:47.081Z,11.73
2019-01-19T01:01:33.052Z,11.40
2019-01-19T01:04:27.460Z,10.23
2019-01-19T01:07:09.181Z,10.23
2019-01-19T01:10:32.957Z,9.43
2019-01-19T01:13:28.434Z,14.13
2019-01-19T01:16:44.404Z,14.18
2019-01-19T01:19:42.851Z,9.00
2019-01-19T01:23:08.320Z,10.25
2019-01-19T01:26:23.847Z,11.15
2019-01-19T01:29:36.724Z,10.97
2019-01-19T01:32:17.718Z,12.82
2019-01-19T01:35:32.851Z,10.60
2019-01-19T01:38:11.093Z,10.68
2019-01-19T01:41:17.186Z,14.90
2019-01-19T01:44:23.331Z,13.93
2019-01-19T01:47:25.079Z,10.40
2019-01-19T01:50:09.994Z,13.68
2019-01-19T01:53:22.746Z,11.53
2019-01-19T01:55:56.248Z,11.38
2019-01-19T01:58:54.263Z,12.07
2019-01-19T02:02:19.980Z,9.70
2019-01-19T02:05:21.350Z,11.55
2019-01-19T02:08:05.178Z,14.00
2019-01-19T02:10:45.261Z,12.45
2019-01-19T02:13:27.423Z,11.95
2019-01-19T02:16:49.586Z,9.40
2019-01-19T02:19:53.535Z,12.88
2019-01-19T02:22:58.574Z,10.38
2019-01-19T02:25:59.775Z,12.60
2019-01-19T02:29:10.111Z,13.53
2019-01-19T02:32:14.936Z,13.53
2019-01-19T02:35:09.789Z,12.03
2019-01-19T02:38:21.009Z,13.68
2019-01-19T02:41:11.796Z,14.70
2019-01-19T02:44:10.875Z,10.68
2019-01-19T02:47:26.358Z,13.03
2019-01-19T02:50:46.075Z,17.27
2019-01-19T02:53:47.632Z,17.60
2019-01-19T02:56:48.498Z,13.08
2019-01-19T02:59:48.674Z,12.98
2019-01-19T03:02:50.977Z,12.45
2019-01-19T03:05:29.791Z,10.82
2019-01-19T03:08:29.196Z,12.33
2019-01-19T03:11:11.556Z,11.25
2019-01-19T03:13:55.117Z,13.40
2019-01-19T03:17:10.695Z,14.03
2019-01-19T03:20:29.416Z,14.50
2019-01-19T03:23:19.568Z,12.28
2019-01-19T03:26:19.909Z,12.68
2019-01-19T03:29:20.555Z,10.98
2019-01-19T03:32:27.874Z,13.35
2019-01-19T03:35:24.685Z,16.37
2019-01-19T03:38:35.091Z,11.80
2019-01-19T03:41:29.988Z,13.75
2019-01-19T03:44:27.292Z,14.80
2019-01-19T03:47:32.154Z,13.38
2019-01-19T03:50:36.937Z,14.70
2019-01-19T03:53:38.962Z,14.50
2019-01-19T03:56:50.673Z,14.07
2019-01-19T03:59:33.488Z,14.40
2019-01-19T04:02:39.638Z,12.05
2019-01-19T04:05:53.994Z,15.53
2019-01-19T04:08:41.493Z,14.60
2019-01-19T04:11:29.350Z,14.60
2019-01-19T04:14:31.933Z,16.00
2019-01-19T04:17:53.786Z,15.40
2019-01-19T04:20:44.047Z,11.85
2019-01-19T04:23:32.277Z,12.13
2019-01-19T04:26:05.209Z,12.60
2019-01-19T04:28:34.838Z,14.13
2019-01-19T04:31:03.913Z,14.50
2019-01-19T04:33:33.011Z,15.50
2019-01-19T04:36:02.072Z,16.90
2019-01-19T04:38:31.716Z,16.07
2019-01-19T04:41:01.059Z,13.72
2019-01-19T04:43:30.152Z,18.32
2019-01-19T04:45:59.250Z,14.95
2019-01-19T04:48:28.597Z,18.27
2019-01-19T04:50:57.662Z,14.78
2019-01-19T04:53:26.964Z,13.07
2019-01-19T04:55:56.037Z,13.48
2019-01-19T04:58:25.358Z,20.10
2019-01-19T05:00:54.453Z,14.10
2019-01-19T05:03:23.808Z,15.58
2019-01-19T05:05:52.902Z,17.73
2019-01-19T05:08:21.995Z,17.80
2019-01-19T05:10:51.107Z,17.98
2019-01-19T05:13:20.205Z,22.98
2019-01-19T05:15:49.317Z,20.05
2019-01-19T05:18:18.733Z,21.05
2019-01-19T05:20:47.864Z,19.97
2019-01-19T05:23:16.900Z,19.03
2019-01-19T05:25:46.038Z,20.70
2019-01-19T05:28:15.415Z,18.27
2019-01-19T05:30:44.510Z,16.02
2019-01-19T05:33:13.852Z,17.80
2019-01-19T05:35:43.192Z,19.05
2019-01-19T05:38:31.377Z,18.55
2019-01-19T05:41:00.778Z,18.65
2019-01-19T05:43:29.935Z,18.82
2019-01-19T05:45:59.082Z,17.45
2019-01-19T05:48:28.143Z,18.95
2019-01-19T05:50:57.232Z,18.25
2019-01-19T05:53:26.299Z,18.77
2019-01-19T05:55:55.616Z,23.90
2019-01-19T05:58:24.944Z,17.27
2019-01-19T06:00:54.069Z,20.43
2019-01-19T06:03:23.159Z,21.23
2019-01-19T06:05:53.051Z,22.77
2019-01-19T06:08:22.108Z,22.77
2019-01-19T06:10:51.179Z,22.30
2019-01-19T06:13:20.258Z,24.15
2019-01-19T06:15:49.615Z,22.90
2019-01-19T06:18:18.761Z,25.32
2019-01-19T06:20:47.869Z,22.02
2019-01-19T06:23:17.013Z,18.60
2019-01-19T06:25:46.085Z,21.95
2019-01-19T06:28:15.213Z,26.02
2019-01-19T06:30:44.572Z,26.27
2019-01-19T06:33:13.681Z,25.80
2019-01-19T06:35:42.765Z,28.25
2019-01-19T06:38:11.857Z,24.90
2019-01-19T06:40:40.933Z,27.22
2019-01-19T06:43:10.067Z,28.83
2019-01-19T06:45:39.116Z,25.92
2019-01-19T06:48:08.228Z,27.82
2019-01-19T06:50:37.300Z,26.97
2019-01-19T06:53:06.645Z,29.95
2019-01-19T06:55:37.401Z,29.15
2019-01-19T06:58:06.999Z,29.05
2019-01-19T07:00:36.089Z,27.22
2019-01-19T07:03:05.536Z,25.88
2019-01-19T07:05:34.592Z,28.50
2019-01-19T07:08:03.670Z,25.50
2019-01-19T07:10:32.759Z,29.87
2019-01-19T07:13:02.096Z,29.63
2019-01-19T07:15:31.186Z,29.57
2019-01-19T07:18:00.528Z,28.30
2019-01-19T07:20:31.104Z,26.75
2019-01-19T07:23:00.236Z,24.70
2019-01-19T07:25:29.375Z,28.70
2019-01-19T07:27:58.724Z,28.20
2019-01-19T07:30:28.061Z,27.90
2019-01-19T07:32:57.121Z,23.90
2019-01-19T07:35:26.458Z,23.70
2019-01-19T07:37:55.796Z,23.70
2019-01-19T07:40:25.125Z,26.03
2019-01-19T07:42:56.682Z,19.30
2019-01-19T07:45:25.753Z,24.75
2019-01-19T07:47:55.167Z,20.37
2019-01-19T07:50:24.235Z,21.90
2019-01-19T07:52:53.343Z,23.23
2019-01-19T07:55:22.409Z,26.17
2019-01-19T07:57:51.484Z,23.00
2019-01-19T08:00:26.063Z,23.40
2019-01-19T08:02:55.124Z,22.00
2019-01-19T08:05:24.756Z,20.17
2019-01-19T08:07:54.139Z,20.00
2019-01-19T08:10:23.347Z,28.95
2019-01-19T08:12:52.578Z,22.85
2019-01-19T08:15:23.660Z,22.13
2019-01-19T08:17:52.711Z,19.75
2019-01-19T08:20:21.841Z,19.12
2019-01-19T08:22:51.268Z,21.07
2019-01-19T08:25:20.757Z,19.92
2019-01-19T08:27:49.864Z,21.50
2019-01-19T08:30:21.038Z,19.57
2019-01-19T08:32:50.367Z,20.30
2019-01-19T08:35:19.741Z,20.52
2019-01-19T08:37:48.918Z,21.85
2019-01-19T08:40:20.261Z,21.90
2019-01-19T08:42:55.286Z,20.23
2019-01-19T08:45:24.677Z,21.05
2019-01-19T08:47:53.787Z,20.10
2019-01-19T08:50:22.850Z,24.33
2019-01-19T08:52:51.921Z,21.60
2019-01-19T08:55:20.975Z,17.13
2019-01-19T08:57:50.120Z,18.80
2019-01-19T09:00:19.215Z,20.50
2019-01-19T09:02:48.398Z,19.90
2019-01-19T09:05:17.796Z,22.67
2019-01-19T09:07:46.884Z,22.35
2019-01-19T09:10:15.950Z,25.50
2019-01-19T09:12:45.253Z,21.00
2019-01-19T09:15:15.066Z,21.75
2019-01-19T09:17:44.332Z,22.40
2019-01-19T09:20:14.636Z,19.25
2019-01-19T09:22:43.700Z,21.50
2019-01-19T09:25:14.360Z,22.55
2019-01-19T09:27:43.535Z,18.23
2019-01-19T09:30:17.884Z,18.43
2019-01-19T09:32:47.232Z,18.98
2019-01-19T09:35:16.304Z,18.90
2019-01-19T09:37:46.901Z,18.42
2019-01-19T09:40:16.365Z,22.67
2019-01-19T09:42:45.924Z,19.77
2019-01-19T09:45:15.495Z,20.90
2019-01-19T09:50:25.485Z,21.95
2019-01-19T09:52:54.786Z,22.82
2019-01-19T09:55:23.786Z,19.52
2019-01-19T09:57:52.814Z,20.43
2019-01-19T10:00:22.170Z,18.40
2019-01-19T10:02:51.193Z,17.90
2019-01-19T10:05:21.656Z,17.45
2019-01-19T10:07:50.991Z,18.27
2019-01-19T10:10:20.129Z,19.25
2019-01-19T10:12:49.162Z,18.73
2019-01-19T10:15:18.239Z,19.92
2019-01-19T10:17:47.290Z,18.80
2019-01-19T10:20:19.089Z,19.32
2019-01-19T10:22:48.125Z,22.15
2019-01-19T10:25:17.162Z,19.27
2019-01-19T10:27:46.502Z,21.87
2019-01-19T10:30:18.090Z,18.77
2019-01-19T10:32:47.350Z,22.23
2019-01-19T10:35:16.910Z,17.32
2019-01-19T10:37:45.926Z,21.00
2019-01-19T10:40:15.286Z,21.37
2019-01-19T10:42:44.321Z,20.57
2019-01-19T10:45:15.989Z,20.77
2019-01-19T10:47:45.013Z,22.95
2019-01-19T10:50:15.096Z,17.85
2019-01-19T10:52:44.205Z,19.85
2019-01-19T10:55:14.633Z,17.73
2019-01-19T10:57:43.922Z,16.77
2019-01-19T11:00:18.642Z,15.80
2019-01-19T11:02:47.887Z,20.23
2019-01-19T11:05:17.243Z,14.98
2019-01-19T11:07:48.149Z,16.35
2019-01-19T11:10:19.107Z,14.80
2019-01-19T11:12:48.101Z,17.67
2019-01-19T11:15:17.285Z,16.65
2019-01-19T11:17:46.325Z,14.30
2019-01-19T11:20:18.427Z,14.90
2019-01-19T11:22:47.449Z,17.77
2019-01-19T11:25:16.567Z,14.95
2019-01-19T11:27:45.585Z,17.82
2019-01-19T11:30:23.551Z,14.30
2019-01-19T11:32:52.845Z,17.90
2019-01-19T11:35:22.161Z,15.03
2019-01-19T11:37:51.162Z,16.17
2019-01-19T11:40:22.378Z,14.43
2019-01-19T11:42:51.387Z,15.93
2019-01-19T11:45:21.486Z,15.35
2019-01-19T11:47:50.481Z,15.58
2019-01-19T11:50:20.242Z,18.00
2019-01-19T11:52:49.306Z,15.60
2019-01-19T11:55:21.455Z,15.85
2019-01-19T11:57:52.900Z,17.52
2019-01-19T12:00:24.154Z,19.03
2019-01-19T12:02:54.984Z,13.70
2019-01-19T12:05:24.016Z,17.65
2019-01-19T12:07:53.034Z,17.40
2019-01-19T12:10:24.114Z,16.05
2019-01-19T12:12:53.119Z,15.93
2019-01-19T12:15:22.122Z,17.92
2019-01-19T12:17:51.234Z,18.02
2019-01-19T12:20:26.262Z,18.52
2019-01-19T12:22:55.289Z,18.10
2019-01-19T12:25:24.751Z,14.23
2019-01-19T12:27:54.082Z,16.85
2019-01-19T12:30:25.155Z,26.33
2019-01-19T12:32:54.178Z,18.92
2019-01-19T12:35:23.479Z,18.85
2019-01-19T12:37:52.497Z,24.67
2019-01-19T12:40:22.973Z,19.90
2019-01-19T12:42:54.739Z,19.62
2019-01-19T12:45:29.847Z,18.62
2019-01-19T12:47:59.203Z,18.02
2019-01-19T12:50:28.242Z,19.73
2019-01-19T12:52:57.326Z,19.52
2019-01-19T12:55:26.366Z,16.55
2019-01-19T12:57:55.381Z,17.80
2019-01-19T13:00:25.759Z,18.40
2019-01-19T13:02:55.313Z,19.32
2019-01-19T13:05:39.746Z,18.95
2019-01-19T13:08:10.973Z,16.60
2019-01-19T13:10:43.962Z,18.25
2019-01-19T13:13:19.850Z,18.23
2019-01-19T13:16:24.850Z,16.50
2019-01-19T13:19:08.202Z,16.62
2019-01-19T13:22:15.634Z,22.20
2019-01-19T13:25:39.837Z,15.98
2019-01-19T13:28:44.814Z,16.77
2019-01-19T13:31:52.690Z,15.00
2019-01-19T13:35:20.022Z,27.15
2019-01-19T13:38:30.121Z,17.75
2019-01-19T13:41:45.625Z,18.00
2019-01-19T13:45:01.114Z,18.30
2019-01-19T13:48:29.338Z,15.53
2019-01-19T13:51:45.866Z,19.17
2019-01-19T13:54:52.077Z,20.57
2019-01-19T13:57:55.274Z,17.07
2019-01-19T14:00:51.646Z,13.93
2019-01-19T14:04:03.750Z,14.70
2019-01-19T14:07:04.855Z,17.02
2019-01-19T14:10:06.762Z,20.88
2019-01-19T14:13:29.178Z,15.88
2019-01-19T14:16:10.381Z,15.05
2019-01-19T14:19:16.738Z,16.12
2019-01-19T14:21:57.310Z,15.43
2019-01-19T14:25:00.433Z,16.90
2019-01-19T14:28:22.376Z,15.95
2019-01-19T14:31:32.710Z,20.55
2019-01-19T14:34:43.157Z,17.50
2019-01-19T14:38:06.037Z,13.30
2019-01-19T14:40:54.404Z,14.68
2019-01-19T14:43:56.026Z,14.00
2019-01-19T14:46:53.294Z,16.70
2019-01-19T14:50:08.986Z,14.85
2019-01-19T14:53:19.427Z,21.83
2019-01-19T14:56:14.286Z,17.02
2019-01-19T14:59:10.058Z,16.77
2019-01-19T15:02:07.206Z,15.88
2019-01-19T15:05:14.474Z,15.00
2019-01-19T15:08:18.982Z,20.15
2019-01-19T15:10:56.976Z,20.90
2019-01-19T15:14:03.118Z,22.95
2019-01-19T15:17:15.877Z,21.10
2019-01-19T15:20:21.999Z,18.15
2019-01-19T15:23:35.385Z,23.92
2019-01-19T15:26:48.573Z,20.08
2019-01-19T15:29:49.514Z,22.05
2019-01-19T15:32:41.041Z,22.62
2019-01-19T15:36:06.906Z,31.05
2019-01-19T15:39:10.763Z,30.17
2019-01-19T15:42:03.010Z,29.42
2019-01-19T15:45:22.498Z,25.15
2019-01-19T15:48:36.114Z,18.82
2019-01-19T15:51:46.466Z,20.08
2019-01-19T15:54:47.669Z,20.52
2019-01-19T15:57:50.878Z,23.10
2019-01-19T16:00:55.783Z,17.48
2019-01-19T16:03:43.133Z,17.57
2019-01-19T16:06:54.601Z,22.15
2019-01-19T16:10:26.146Z,17.25
2019-01-19T16:13:22.008Z,17.42
2019-01-19T16:16:23.226Z,13.68
2019-01-19T16:19:34.277Z,19.70
2019-01-19T16:22:53.357Z,21.15
2019-01-19T16:26:14.133Z,20.73
2019-01-19T16:29:24.216Z,15.40
2019-01-19T16:32:47.009Z,15.55
2019-01-19T16:35:54.297Z,16.77
2019-01-19T16:39:02.674Z,22.90
2019-01-19T16:42:24.109Z,22.27
2019-01-19T16:45:36.292Z,16.93
2019-01-19T16:48:18.170Z,17.12
2019-01-19T16:51:28.346Z,18.12
2019-01-19T16:54:31.894Z,25.70
2019-01-19T16:57:26.888Z,25.97
2019-01-19T17:00:47.606Z,25.82
2019-01-19T17:03:56.501Z,21.07
2019-01-19T17:06:50.506Z,22.87
2019-01-19T17:09:59.893Z,30.23
2019-01-19T17:13:12.247Z,28.30
2019-01-19T17:16:20.370Z,24.12
2019-01-19T17:19:15.535Z,23.62
2019-01-19T17:22:04.406Z,27.62
2019-01-19T17:25:23.366Z,25.27
2019-01-19T17:28:20.778Z,32.63
2019-01-19T17:31:26.096Z,29.27
2019-01-19T17:34:19.587Z,36.05
2019-01-19T17:37:34.656Z,40.05
2019-01-19T17:40:42.194Z,43.55
2019-01-19T17:43:38.357Z,36.23
2019-01-19T17:46:27.217Z,42.88
2019-01-19T17:49:32.330Z,38.73
2019-01-19T17:52:54.594Z,37.13
2019-01-19T17:56:18.537Z,49.60
2019-01-19T17:59:25.654Z,37.78
2019-01-19T18:02:38.430Z,39.33
2019-01-19T18:05:41.375Z,38.50
2019-01-19T18:09:06.814Z,36.53
2019-01-19T18:12:24.941Z,32.00
2019-01-19T18:15:32.202Z,25.85
2019-01-19T18:18:51.444Z,27.17
2019-01-19T18:21:41.301Z,27.48
2019-01-19T18:24:57.089Z,33.95
2019-01-19T18:27:48.205Z,41.83
2019-01-19T18:31:01.843Z,26.15
2019-01-19T18:34:20.098Z,29.25
2019-01-19T18:37:25.102Z,22.20
2019-01-19T18:40:16.013Z,32.83
2019-01-19T18:43:00.150Z,31.60
2019-01-19T18:45:52.850Z,25.12
2019-01-19T18:49:12.125Z,28.52
2019-01-19T18:52:34.886Z,32.10
2019-01-19T18:55:27.349Z,30.65
2019-01-19T18:58:37.216Z,30.82
2019-01-19T19:01:33.678Z,24.87
2019-01-19T19:04:58.886Z,23.85
2019-01-19T19:08:06.258Z,20.75
2019-01-19T19:11:21.286Z,21.25
2019-01-19T19:14:33.335Z,21.77
2019-01-19T19:17:38.289Z,26.73
2019-01-19T19:21:02.578Z,20.70
2019-01-19T19:24:05.018Z,18.98
2019-01-19T19:27:10.119Z,79.25
2019-01-19T19:30:00.482Z,91.10
2019-01-19T19:33:19.506Z,32.48
2019-01-19T19:36:27.408Z,31.40
2019-01-19T19:39:35.064Z,24.63
2019-01-19T19:42:44.214Z,26.25
2019-01-19T19:45:53.390Z,26.07
2019-01-19T19:48:58.467Z,23.40
2019-01-19T19:51:56.563Z,24.75
2019-01-19T19:54:26.605Z,21.15
2019-01-19T19:56:55.694Z,25.65
2019-01-19T19:59:24.706Z,22.65
2019-01-19T20:01:53.717Z,22.63
2019-01-19T20:04:22.729Z,24.67
2019-01-19T20:06:52.122Z,24.35
2019-01-19T20:09:21.520Z,22.02
2019-01-19T20:12:09.793Z,24.35
2019-01-19T20:14:39.170Z,21.30
2019-01-19T20:17:08.493Z,28.23
2019-01-19T20:19:37.765Z,30.52
2019-01-19T20:22:06.773Z,38.38
2019-01-19T20:24:35.813Z,32.13
2019-01-19T20:27:05.194Z,33.63
2019-01-19T20:29:34.162Z,33.70
2019-01-19T20:32:04.121Z,33.88
2019-01-19T20:34:33.146Z,30.75
2019-01-19T20:37:02.133Z,30.43
2019-01-19T20:39:31.369Z,34.03
2019-01-19T20:42:00.387Z,32.55
2019-01-19T20:44:29.401Z,27.07
2019-01-19T20:46:58.730Z,22.07
2019-01-19T20:49:28.041Z,24.25
2019-01-19T20:51:57.435Z,22.22
2019-01-19T20:54:26.530Z,23.62
2019-01-19T20:56:55.573Z,28.05
2019-01-19T20:59:24.609Z,22.93
2019-01-19T21:01:53.537Z,24.43
2019-01-19T21:04:22.490Z,26.37
2019-01-19T21:06:51.450Z,26.20
2019-01-19T21:09:20.457Z,25.88
2019-01-19T21:11:49.418Z,26.05
2019-01-19T21:14:18.362Z,28.07
2019-01-19T21:16:47.682Z,31.68
2019-01-19T21:19:16.565Z,29.37
2019-01-19T21:21:45.859Z,29.37
2019-01-19T21:24:14.830Z,38.78
2019-01-19T21:26:43.849Z,51.65
2019-01-19T21:29:12.778Z,49.63
2019-01-19T21:31:41.714Z,44.30
2019-01-19T21:34:10.650Z,30.60
2019-01-19T21:36:40.018Z,24.90
2019-01-19T21:39:09.302Z,27.82
2019-01-19T21:41:38.350Z,33.65
2019-01-19T21:44:07.733Z,37.95
2019-01-19T21:46:36.953Z,38.00
2019-01-19T21:49:06.310Z,36.17
2019-01-19T21:51:35.318Z,31.42
2019-01-19T21:54:04.329Z,27.17
2019-01-19T21:56:33.718Z,27.52
2019-01-19T21:59:02.738Z,28.25
2019-01-19T22:01:32.170Z,25.68
2019-01-19T22:04:01.186Z,29.35
2019-01-19T22:06:30.197Z,28.32
2019-01-19T22:08:59.517Z,27.52
2019-01-19T22:11:28.541Z,27.95
2019-01-19T22:13:57.494Z,28.70
2019-01-19T22:16:26.445Z,24.67
2019-01-19T22:18:55.757Z,27.65
2019-01-19T22:21:25.042Z,22.13
2019-01-19T22:23:54.046Z,23.07
2019-01-19T22:26:23.747Z,27.22
2019-01-19T22:28:53.354Z,28.25
2019-01-19T22:31:22.351Z,30.80
2019-01-19T22:33:51.317Z,24.40
2019-01-19T22:36:20.324Z,28.30
2019-01-19T22:38:49.641Z,20.85
2019-01-19T22:41:18.727Z,22.10
2019-01-19T22:43:47.750Z,20.52
2019-01-19T22:46:16.753Z,23.67
2019-01-19T22:48:45.750Z,24.30
2019-01-19T22:51:14.705Z,19.90
2019-01-19T22:53:43.915Z,22.10
2019-01-19T22:56:13.029Z,21.67
2019-01-19T22:58:42.033Z,33.40
2019-01-19T23:01:44.594Z,23.83
2019-01-19T23:04:13.590Z,36.88
2019-01-19T23:06:42.597Z,28.98
2019-01-19T23:09:12.217Z,31.95
2019-01-19T23:11:41.371Z,29.90
2019-01-19T23:14:29.978Z,31.17
2019-01-19T23:16:58.999Z,33.18
2019-01-19T23:19:28.293Z,28.02
2019-01-19T23:21:57.318Z,33.73
2019-01-19T23:24:26.350Z,37.48
2019-01-19T23:27:00.898Z,37.08
2019-01-19T23:29:30.221Z,38.78
2019-01-19T23:31:59.157Z,35.58
2019-01-19T23:34:28.085Z,39.25
2019-01-19T23:36:57.134Z,36.33
2019-01-19T23:39:26.123Z,37.10
2019-01-19T23:41:55.162Z,31.13
2019-01-19T23:44:24.193Z,39.43
2019-01-19T23:46:53.210Z,37.70
2019-01-19T23:49:22.221Z,30.90
2019-01-19T23:51:51.165Z,30.65
2019-01-19T23:54:20.170Z,28.27
2019-01-19T23:56:49.110Z,31.20
2019-01-19T23:59:18.366Z,30.55
